Terminal Aerodrome Forecast
Issued by NWS Wilmington, OH

Home | Current Version | Previous Version | Text Only | Print | Product List | Glossary On
Versions: 1 2 3 4 5 6 7 8 9 10 11 12 13 14 15 16 17 18 19 20 21 22 23 24 25 26 27
000
FTUS41 KILN 172300
TAFDAY
TAF
KDAY 172320Z 1800/1824 29008KT P6SM OVC014
     FM181700 28006KT P6SM BKN018=

USA.gov is the U.S. government's official web portal to all federal, state and local government web resources and services.